Share

University, MS (38677)

9:01 AM CDT on April 24, 2014 (GMT -0500)
University-Oxford (KUOX) Elev 453 ft | 34.38 °N, 89.54 °W | Change Station

Current weather conditions updated 26 minutes ago

Clear
Clear
61 °F
Feels Like 61 °F
N
4
Wind Variable Wind from SSE
Sunrise 6:15 AM
Sunset 7:37 PM
Moon Waning Crescent

Today is forecast to be Warmer than yesterday. Thunderstorms early tonight.

Pressure 29.97 in
Visibility 10.0 miles
Clouds Clear
Dew Point 41 °F
Humidity 48%
Rainfall 0.00 in
Snow Depth Not available.
UV 3 out of 16
Pollen 8.10 out of 12
Air Quality Not available.
Flu Activity No Activity
METAR KUOX 241335Z AUTO 15003KT 10SM CLR 16/05 A2997 RMK AO2

More Conditions Fewer Conditions

Pressure 29.97 in
Visibility 10.0 miles
Clouds Clear
Dew Point 41 °F
Humidity 48%
Rainfall 0.00 in
Snow Depth Not available.
UV 3 out of 16
Pollen 8.10 out of 12
Air Quality Not available.
Flu Activity No Activity
METAR KUOX 241335Z AUTO 15003KT 10SM CLR 16/05 A2997 RMK AO2

More Conditions Fewer Conditions

10-Day Weather Forecast

Almanac

Astronomy

Apr. 24, 2014 Rise Set
Actual Time 6:15 AM CDT 7:37 PM CDT
Civil Twilight 5:49 AM CDT 8:03 PM CDT
Nautical Twilight 5:18 AM CDT 8:34 PM CDT
Astronomical Twilight 4:45 AM CDT 9:07 PM CDT
Moon 3:13 AM CDT 3:04 PM CDT
Length of Visible Light 14h 13m
Length of Day
13h 21m
Tomorrow will be 1m 55s longer.
Waning Crescent, 25% of the Moon is Illuminated
Today
Waning Crescent
Apr 29
New
May 6
First Quarter
May 14
Full
May 21
Last Quarter

Today's Extremes

State Highs State Lows

Community

  • Clouds mov'n in
    Clouds mov'n in
  • Stacked
    Stacked
  • clouds approaching Red Sox Nation
    clouds approaching Red Sox Nation
  • Balance
    Balance
  • Citysky
    Citysky

WunderPhotos

Upload Photos

1,704,612 photos uploaded!

Nearby

Snow Depth

Station Depth Elevation
No new snow has been reported.

Coastal Water Temperatures

Place Temperature
No Stations Reporting

Earthquake Activity

City Distance Mag. Time & Date
Ridgely, Tennessee 127 miles 2.5 10:13 PM CDT
2014-04-19
Minimum magnitude displayed is 2.5.

Nearby Weather Stations

Station Location Temp. Dew Point Humidity Wind Precip. Elev Updated Type
RAWS WINBORN MS, Potts Camp, MS 58 °F 49 °F 73% SE  at  3 mph 0.00 in / hr 500 ft 8:09 AM CDT MADIS

Show More Stations Show Fewer Stations

What do you think?

We're not finished. Please let us know what you like, what you don't like, and what you are still missing.